Time;durP1;ratioP1;P1;durP2;ratioP2;P2;SDS_P1;SDS_P2;PMS_P1;PMS_P2;Temp;Humidity;BMP_temperature;BMP_pressure;BME280_temperature;BME280_humidity;BME280_pressure;Samples;Min_cycle;Max_cycle;Signal;HPM_P1;HPM_P2
2022/11/21 00:01:13;;;;;;;3.42;1.25;;;6.40;99.90;;;;;;5079416;28;20211;-65
2022/11/21 00:03:43;;;;;;;5.22;1.58;;;6.40;99.90;;;;;;5084027;28;20637;-65
2022/11/21 00:06:10;;;;;;;1.75;1.27;;;6.40;99.90;;;;;;5090356;28;20332;-65
2022/11/21 00:08:38;;;;;;;3.70;1.50;;;6.40;99.90;;;;;;5088171;28;20210;-65
2022/11/21 00:11:06;;;;;;;1.63;1.45;;;6.30;99.90;;;;;;5092457;28;20210;-65
2022/11/21 00:13:34;;;;;;;1.85;1.73;;;6.30;99.90;;;;;;5090892;28;20199;-64
2022/11/21 00:16:06;;;;;;;1.83;1.35;;;6.30;99.90;;;;;;5082816;28;20201;-64
2022/11/21 00:18:35;;;;;;;4.70;2.10;;;6.40;99.90;;;;;;5086321;28;20203;-64
2022/11/21 00:21:06;;;;;;;2.55;1.60;;;6.30;99.90;;;;;;5079497;28;20212;-64
2022/11/21 00:23:34;;;;;;;2.92;1.70;;;6.40;99.90;;;;;;5092088;28;20563;-65
2022/11/21 00:26:05;;;;;;;2.50;1.65;;;6.40;99.90;;;;;;5092332;28;20266;-65
2022/11/21 00:28:33;;;;;;;7.75;1.75;;;6.40;99.90;;;;;;5085347;28;20230;-65
2022/11/21 00:31:01;;;;;;;2.53;1.70;;;6.40;99.90;;;;;;5091309;28;20222;-65
2022/11/21 00:33:29;;;;;;;1.98;1.88;;;6.30;99.90;;;;;;5091752;28;20193;-64
2022/11/21 00:35:57;;;;;;;4.93;1.50;;;6.30;99.90;;;;;;5091627;28;20203;-66
2022/11/21 00:38:27;;;;;;;3.53;1.60;;;6.40;99.90;;;;;;5091423;28;20654;-66
2022/11/21 00:40:55;;;;;;;2.17;1.73;;;6.50;99.90;;;;;;5092228;28;20599;-65
2022/11/21 00:43:23;;;;;;;4.90;2.30;;;6.40;99.90;;;;;;5091815;28;20199;-65
2022/11/21 00:45:51;;;;;;;4.22;1.73;;;6.40;99.90;;;;;;5092294;28;20222;-65
2022/11/21 00:48:18;;;;;;;4.25;2.10;;;6.40;99.90;;;;;;5091705;28;20199;-65
2022/11/21 00:50:48;;;;;;;5.28;1.83;;;6.40;99.90;;;;;;5092069;28;20191;-64
2022/11/21 00:53:16;;;;;;;5.72;1.80;;;6.30;99.90;;;;;;5092027;28;20195;-64
2022/11/21 00:55:45;;;;;;;3.85;1.65;;;6.30;99.90;;;;;;5083705;28;20257;-65
2022/11/21 00:58:13;;;;;;;4.32;1.70;;;6.20;99.90;;;;;;5052431;28;20209;-66
2022/11/21 01:00:41;;;;;;;5.13;2.10;;;6.20;99.90;;;;;;5051502;28;20220;-65
2022/11/21 01:03:09;;;;;;;8.52;2.50;;;6.20;99.90;;;;;;5050758;28;20227;-66
2022/11/21 01:05:37;;;;;;;5.18;2.20;;;6.10;99.90;;;;;;5053968;28;20200;-65
2022/11/21 01:08:05;;;;;;;6.57;2.50;;;6.10;99.90;;;;;;5059847;28;20197;-65
2022/11/21 01:10:34;;;;;;;2.53;2.17;;;6.10;99.90;;;;;;5052943;28;20204;-65
2022/11/21 01:13:04;;;;;;;6.15;2.50;;;6.10;99.90;;;;;;5069454;28;20195;-66
2022/11/21 01:15:33;;;;;;;3.97;2.80;;;6.10;99.90;;;;;;5057415;28;20208;-65
2022/11/21 01:18:01;;;;;;;2.45;2.10;;;6.10;99.90;;;;;;5063265;28;20201;-66
2022/11/21 01:20:29;;;;;;;3.55;2.50;;;6.10;99.90;;;;;;5062005;28;20583;-65
2022/11/21 01:22:57;;;;;;;3.22;2.50;;;6.10;99.90;;;;;;5053236;28;20196;-65
2022/11/21 01:25:25;;;;;;;2.60;2.40;;;6.10;99.90;;;;;;5057108;28;20200;-65
2022/11/21 01:27:52;;;;;;;6.25;2.15;;;6.20;99.90;;;;;;5070053;28;20706;-66
2022/11/21 01:30:23;;;;;;;3.75;2.05;;;6.10;99.90;;;;;;5072277;28;20188;-66
2022/11/21 01:32:51;;;;;;;2.10;1.98;;;6.20;99.90;;;;;;5071461;28;20202;-66
2022/11/21 01:35:19;;;;;;;2.95;1.88;;;6.20;99.90;;;;;;5071546;28;20686;-66
2022/11/21 01:37:48;;;;;;;6.28;1.77;;;6.30;99.90;;;;;;5063841;28;20214;-66
2022/11/21 01:40:16;;;;;;;3.03;1.55;;;6.40;99.90;;;;;;5059684;28;20262;-66
2022/11/21 01:42:54;;;;;;;3.95;1.55;;;6.40;99.90;;;;;;5071266;28;20208;-66
2022/11/21 01:45:53;;;;;;;1.70;1.58;;;6.40;99.90;;;;;;5072459;28;20241;-65
2022/11/21 01:48:26;;;;;;;3.38;1.55;;;6.40;99.90;;;;;;5075212;28;20188;-66
2022/11/21 01:50:56;;;;;;;4.70;2.42;;;6.50;99.90;;;;;;5075500;28;20187;-65
2022/11/21 01:53:24;;;;;;;2.10;1.48;;;6.50;99.90;;;;;;5074849;28;20200;-64
2022/11/21 01:55:53;;;;;;;5.28;1.45;;;6.50;99.90;;;;;;5075441;28;20208;-66
2022/11/21 01:58:22;;;;;;;3.30;1.42;;;6.50;99.90;;;;;;5074800;28;20207;-66
2022/11/21 02:00:52;;;;;;;4.03;1.35;;;6.50;99.90;;;;;;5074928;28;20227;-64
2022/11/21 02:03:26;;;;;;;5.57;2.03;;;6.50;99.90;;;;;;5073449;28;20222;-63
2022/11/21 02:05:56;;;;;;;2.42;1.50;;;6.60;99.90;;;;;;5073946;28;20196;-62
2022/11/21 02:08:26;;;;;;;4.90;1.75;;;6.60;99.90;;;;;;5074838;28;20204;-63
2022/11/21 02:11:00;;;;;;;2.90;1.50;;;6.60;99.90;;;;;;5074195;28;20230;-63
2022/11/21 02:13:28;;;;;;;7.30;1.73;;;6.60;99.90;;;;;;5073609;28;20554;-63
2022/11/21 02:15:58;;;;;;;6.38;1.40;;;6.60;99.90;;;;;;5054670;28;20216;-63
2022/11/21 02:18:26;;;;;;;7.18;1.42;;;6.60;99.90;;;;;;5054371;28;20205;-63
2022/11/21 02:21:00;;;;;;;4.70;1.33;;;6.60;99.90;;;;;;5054404;28;20706;-63
2022/11/21 02:23:37;;;;;;;3.08;1.70;;;6.60;99.90;;;;;;5054243;28;20192;-63
2022/11/21 02:26:07;;;;;;;2.58;1.30;;;6.50;99.90;;;;;;5054870;28;20189;-63
2022/11/21 02:28:34;;;;;;;4.32;1.40;;;6.60;99.90;;;;;;5053894;28;20231;-63
2022/11/21 02:31:02;;;;;;;2.08;1.20;;;6.60;99.90;;;;;;5054389;28;20204;-63
2022/11/21 02:33:30;;;;;;;1.80;1.27;;;6.50;99.90;;;;;;5054303;28;20212;-63
2022/11/21 02:35:59;;;;;;;2.85;1.33;;;6.50;99.90;;;;;;5054048;28;20205;-63
2022/11/21 02:38:31;;;;;;;1.20;1.10;;;6.50;99.90;;;;;;5053990;28;20205;-63
2022/11/21 02:41:09;;;;;;;1.30;1.15;;;6.50;99.90;;;;;;5054316;28;20223;-62
2022/11/21 02:43:43;;;;;;;2.08;1.00;;;6.50;99.90;;;;;;5054335;28;20181;-62
2022/11/21 02:46:11;;;;;;;3.78;1.20;;;6.40;99.90;;;;;;5054098;28;20192;-63
2022/11/21 02:48:39;;;;;;;5.13;0.93;;;6.40;99.90;;;;;;5053821;28;20682;-63
2022/11/21 02:51:07;;;;;;;0.95;0.70;;;6.40;99.90;;;;;;5054335;28;20194;-63
2022/11/21 02:53:35;;;;;;;2.15;0.90;;;6.40;99.90;;;;;;5053751;28;20609;-64
2022/11/21 02:56:03;;;;;;;1.55;0.90;;;6.40;99.90;;;;;;5054120;28;20266;-63
2022/11/21 02:58:32;;;;;;;0.90;0.70;;;6.40;99.90;;;;;;5052193;28;20219;-64
2022/11/21 03:01:00;;;;;;;1.85;1.50;;;6.40;99.90;;;;;;5062802;28;20681;-64
2022/11/21 03:03:28;;;;;;;2.53;2.30;;;6.40;99.90;;;;;;5052970;28;20200;-63
2022/11/21 03:05:56;;;;;;;6.50;4.65;;;6.40;99.90;;;;;;5064091;28;20666;-64
2022/11/21 03:08:24;;;;;;;2.38;0.95;;;6.40;99.90;;;;;;5054114;28;20200;-63
2022/11/21 03:10:52;;;;;;;5.80;5.30;;;6.40;99.90;;;;;;5060291;28;20231;-63
2022/11/21 03:13:20;;;;;;;16.67;12.23;;;6.40;99.90;;;;;;5057047;28;20227;-64
2022/11/21 03:15:49;;;;;;;7.97;6.72;;;6.40;99.90;;;;;;5054155;28;20223;-63
2022/11/21 03:18:17;;;;;;;4.53;2.42;;;6.40;99.90;;;;;;5052078;28;20209;-63
2022/11/21 03:20:45;;;;;;;3.90;3.40;;;6.40;99.90;;;;;;5052557;28;20211;-63
2022/11/21 03:23:13;;;;;;;22.60;13.68;;;6.40;99.90;;;;;;5052137;28;20709;-63
2022/11/21 03:25:41;;;;;;;19.05;12.98;;;6.40;99.90;;;;;;5053064;28;20201;-63
2022/11/21 03:28:09;;;;;;;25.95;14.52;;;6.40;99.90;;;;;;5053241;28;20293;-63
2022/11/21 03:30:36;;;;;;;106.30;52.38;;;6.40;99.90;;;;;;5052890;28;20200;-63
2022/11/21 03:33:06;;;;;;;8.93;5.90;;;6.40;99.90;;;;;;5053524;28;20205;-63
2022/11/21 03:35:33;;;;;;;16.45;10.10;;;6.40;99.90;;;;;;5052965;28;20199;-64
2022/11/21 03:38:01;;;;;;;4.10;3.72;;;6.40;99.90;;;;;;5053975;28;20200;-64
2022/11/21 03:40:29;;;;;;;4.07;1.40;;;6.40;99.90;;;;;;5056306;28;20597;-63
2022/11/21 03:42:57;;;;;;;1.00;0.90;;;6.40;99.90;;;;;;5073179;28;20212;-63
2022/11/21 03:45:25;;;;;;;8.00;5.97;;;6.40;99.90;;;;;;5072384;28;20206;-64
2022/11/21 03:47:53;;;;;;;3.30;2.00;;;6.40;99.90;;;;;;5072812;28;20211;-63
2022/11/21 03:50:22;;;;;;;1.33;1.00;;;6.30;99.90;;;;;;5072587;28;20212;-63
2022/11/21 03:52:50;;;;;;;7.20;1.20;;;6.30;99.90;;;;;;5072880;28;20689;-62
2022/11/21 03:55:18;;;;;;;3.67;1.20;;;6.30;99.90;;;;;;5072922;28;20200;-62
2022/11/21 03:57:46;;;;;;;1.20;1.10;;;6.30;99.90;;;;;;5073016;28;20207;-62
2022/11/21 04:00:15;;;;;;;0.77;0.77;;;6.20;99.90;;;;;;5072534;28;20261;-62
2022/11/21 04:02:43;;;;;;;2.35;1.25;;;6.20;99.90;;;;;;5062984;28;20620;-64
2022/11/21 04:05:11;;;;;;;1.35;1.25;;;6.20;99.90;;;;;;5051684;28;20219;-63
2022/11/21 04:07:40;;;;;;;2.08;1.10;;;6.10;99.90;;;;;;5052489;28;20205;-63
2022/11/21 04:10:08;;;;;;;4.78;1.58;;;6.20;99.90;;;;;;5055777;28;20588;-63
2022/11/21 04:12:36;;;;;;;1.70;1.25;;;6.20;99.90;;;;;;5066328;28;20216;-63
2022/11/21 04:15:05;;;;;;;1.38;1.35;;;6.20;99.90;;;;;;5052586;28;20643;-63
2022/11/21 04:17:33;;;;;;;1.38;1.20;;;6.40;99.90;;;;;;5052071;28;20706;-63
2022/11/21 04:20:01;;;;;;;3.08;1.27;;;6.50;99.90;;;;;;5053001;28;20208;-63
2022/11/21 04:22:29;;;;;;;5.20;1.52;;;6.50;99.90;;;;;;5051961;28;20217;-63
2022/11/21 04:24:58;;;;;;;3.03;2.30;;;6.50;99.90;;;;;;5052693;28;20255;-63
2022/11/21 04:27:26;;;;;;;3.55;1.38;;;6.50;99.90;;;;;;5052380;28;20197;-63
2022/11/21 04:29:53;;;;;;;2.97;1.10;;;6.50;99.90;;;;;;5052229;28;20209;-62
2022/11/21 04:32:21;;;;;;;5.18;1.15;;;6.50;99.90;;;;;;5052154;28;20655;-63
2022/11/21 04:34:49;;;;;;;3.83;1.40;;;6.50;99.90;;;;;;5052126;28;20670;-62
2022/11/21 04:37:17;;;;;;;2.80;1.67;;;6.50;99.90;;;;;;5052382;28;20204;-63
2022/11/21 04:39:45;;;;;;;4.88;1.60;;;6.50;99.90;;;;;;5052277;28;20561;-63
2022/11/21 04:42:14;;;;;;;3.17;1.48;;;6.40;99.90;;;;;;5052139;28;20709;-63
2022/11/21 04:44:42;;;;;;;2.75;1.75;;;6.50;99.90;;;;;;5051863;28;20205;-63
2022/11/21 04:47:10;;;;;;;4.40;1.77;;;6.50;99.90;;;;;;5052137;28;20201;-63
2022/11/21 04:49:38;;;;;;;4.13;1.70;;;6.50;99.90;;;;;;5051843;28;20262;-63
2022/11/21 04:52:06;;;;;;;2.35;1.70;;;6.50;99.90;;;;;;5052491;28;20255;-63
2022/11/21 04:54:34;;;;;;;3.15;1.80;;;6.50;99.90;;;;;;5051984;28;20200;-63
2022/11/21 04:57:02;;;;;;;5.82;1.58;;;6.50;99.90;;;;;;5052235;28;20251;-63
2022/11/21 04:59:31;;;;;;;4.05;1.77;;;6.50;99.90;;;;;;5057179;28;20196;-63
2022/11/21 05:01:59;;;;;;;2.22;1.55;;;6.50;99.90;;;;;;5071489;28;20204;-64
2022/11/21 05:04:27;;;;;;;4.80;1.85;;;6.50;99.90;;;;;;5070671;28;20195;-64
2022/11/21 05:06:55;;;;;;;3.53;2.20;;;6.40;99.90;;;;;;5071881;28;20207;-63
2022/11/21 05:09:23;;;;;;;5.63;2.28;;;6.50;99.90;;;;;;5071639;28;20203;-62
2022/11/21 05:14:37;;;;;;;1.77;1.50;;;6.30;99.90;;;;;;5064813;28;20192;-62
2022/11/21 05:17:05;;;;;;;5.72;2.10;;;6.50;99.90;;;;;;5056658;28;20208;-62
2022/11/21 05:19:33;;;;;;;9.30;2.72;;;6.40;99.90;;;;;;5066174;28;20679;-63
2022/11/21 05:22:01;;;;;;;1.90;1.70;;;6.40;99.90;;;;;;5054889;28;20196;-63
2022/11/21 05:24:28;;;;;;;5.95;2.15;;;6.40;99.90;;;;;;5056583;28;20565;-64
2022/11/21 05:26:56;;;;;;;5.38;1.88;;;6.40;99.90;;;;;;5073764;28;20196;-63
2022/11/21 05:29:24;;;;;;;2.63;1.85;;;6.40;99.90;;;;;;5055162;28;20228;-63
2022/11/21 05:31:53;;;;;;;5.05;2.20;;;6.40;99.90;;;;;;5055839;28;20211;-63
2022/11/21 05:34:21;;;;;;;3.05;2.00;;;6.40;99.90;;;;;;5056680;28;20188;-63
2022/11/21 05:36:55;;;;;;;4.03;1.83;;;6.40;99.90;;;;;;5064968;28;20200;-62
2022/11/21 05:39:23;;;;;;;4.13;2.90;;;6.40;99.90;;;;;;5055514;28;20228;-63
2022/11/21 05:41:52;;;;;;;7.32;1.92;;;6.40;99.90;;;;;;5067703;28;20585;-62
2022/11/21 05:44:19;;;;;;;4.05;1.85;;;6.40;99.90;;;;;;5075237;28;20242;-63
2022/11/21 05:46:47;;;;;;;8.55;2.72;;;6.50;99.90;;;;;;5075327;28;20565;-62
2022/11/21 05:49:16;;;;;;;5.25;1.70;;;6.50;99.90;;;;;;5075414;28;20200;-62
2022/11/21 05:51:44;;;;;;;7.90;2.00;;;6.60;99.90;;;;;;5075372;28;20204;-62
2022/11/21 05:54:13;;;;;;;5.25;2.42;;;6.70;99.90;;;;;;5074484;28;20200;-62
2022/11/21 05:56:42;;;;;;;5.43;1.88;;;6.70;99.90;;;;;;5075600;28;20616;-62
2022/11/21 05:59:11;;;;;;;3.47;2.28;;;6.70;99.90;;;;;;5074293;28;20203;-63
2022/11/21 06:04:25;;;;;;;4.10;3.20;;;7.00;99.90;;;;;;5065380;28;20216;-62
2022/11/21 06:06:53;;;;;;;1.70;1.60;;;6.90;99.90;;;;;;5092393;28;20583;-63
2022/11/21 06:09:21;;;;;;;6.18;1.67;;;6.70;99.90;;;;;;5076887;28;20257;-64
2022/11/21 06:11:49;;;;;;;3.25;2.10;;;6.60;99.90;;;;;;5061834;28;20756;-62
2022/11/21 06:14:17;;;;;;;5.82;2.38;;;6.50;99.90;;;;;;5054714;28;20201;-63
2022/11/21 06:16:45;;;;;;;3.17;2.72;;;6.40;99.90;;;;;;5057668;28;20220;-62
2022/11/21 06:19:12;;;;;;;10.55;2.30;;;6.30;99.90;;;;;;5060972;28;20205;-62
2022/11/21 06:21:42;;;;;;;7.60;2.35;;;6.20;99.90;;;;;;5068020;28;20215;-62
2022/11/21 06:24:11;;;;;;;5.03;2.30;;;6.20;99.90;;;;;;5056373;28;20212;-63
2022/11/21 06:26:39;;;;;;;7.53;2.13;;;6.20;99.90;;;;;;5062565;28;20193;-62
2022/11/21 06:29:10;;;;;;;7.15;2.40;;;6.20;99.90;;;;;;5061367;28;20231;-62
2022/11/21 06:31:39;;;;;;;6.53;2.00;;;6.20;99.90;;;;;;5065181;28;20196;-62
2022/11/21 06:34:07;;;;;;;3.65;1.90;;;6.20;99.90;;;;;;5054803;28;20558;-62
2022/11/21 06:36:35;;;;;;;8.57;3.40;;;6.40;99.90;;;;;;5064950;28;20215;-64
2022/11/21 06:39:04;;;;;;;3.42;2.05;;;6.50;99.90;;;;;;5073963;28;21079;-64
2022/11/21 06:41:32;;;;;;;4.57;1.90;;;6.80;99.90;;;;;;5062359;28;20200;-64
2022/11/21 06:44:03;;;;;;;3.30;1.50;;;7.00;99.90;;;;;;5053596;28;20586;-63
2022/11/21 06:46:31;;;;;;;14.43;2.47;;;7.00;99.90;;;;;;5065825;28;20196;-63
2022/11/21 06:48:59;;;;;;;5.38;1.70;;;7.00;99.90;;;;;;5053688;28;20205;-63
2022/11/21 06:51:27;;;;;;;6.57;2.63;;;7.00;99.90;;;;;;5054220;28;20262;-64
2022/11/21 06:53:57;;;;;;;4.93;2.00;;;7.10;99.90;;;;;;5053708;28;20640;-63
2022/11/21 06:56:28;;;;;;;8.43;2.33;;;7.00;99.90;;;;;;5054047;28;20230;-62
2022/11/21 06:58:56;;;;;;;5.80;2.30;;;7.00;99.90;;;;;;5052711;28;20204;-63
2022/11/21 07:01:24;;;;;;;5.20;1.58;;;7.00;99.90;;;;;;5053735;28;20205;-63
2022/11/21 07:03:55;;;;;;;4.70;1.48;;;7.00;99.90;;;;;;5052501;28;20224;-63
2022/11/21 07:06:23;;;;;;;5.60;1.20;;;6.90;99.90;;;;;;5056306;28;20582;-64
2022/11/21 07:08:53;;;;;;;5.60;2.13;;;6.80;99.90;;;;;;5054544;28;20220;-65
2022/11/21 07:11:21;;;;;;;3.60;1.65;;;6.70;99.90;;;;;;5054522;28;20227;-64
2022/11/21 07:13:49;;;;;;;5.13;1.55;;;6.70;99.90;;;;;;5070324;28;20200;-63
2022/11/21 07:16:24;;;;;;;4.53;1.90;;;6.70;99.90;;;;;;5076378;28;20642;-64
2022/11/21 07:18:56;;;;;;;7.45;1.90;;;6.70;99.90;;;;;;5069930;28;20195;-63
2022/11/21 07:21:24;;;;;;;2.72;1.70;;;6.80;99.90;;;;;;5070162;28;20207;-64
2022/11/21 07:23:52;;;;;;;3.97;1.48;;;6.80;99.90;;;;;;5065556;28;20226;-64
2022/11/21 07:26:20;;;;;;;6.85;1.95;;;6.80;99.90;;;;;;5068329;28;20436;-63
2022/11/21 07:28:56;;;;;;;5.88;1.85;;;6.80;99.90;;;;;;5054787;28;20231;-63
2022/11/21 07:31:27;;;;;;;4.40;2.35;;;6.80;99.90;;;;;;5055485;28;20632;-62
2022/11/21 07:33:55;;;;;;;6.00;2.67;;;6.80;99.90;;;;;;5040952;28;20196;-63
2022/11/21 07:36:23;;;;;;;3.40;2.20;;;6.90;99.90;;;;;;5052597;28;20215;-63
2022/11/21 07:38:51;;;;;;;10.38;6.38;;;6.90;99.90;;;;;;5054758;28;20200;-64
2022/11/21 07:41:18;;;;;;;3.97;2.10;;;6.90;99.90;;;;;;5064152;28;20210;-64
2022/11/21 07:43:46;;;;;;;6.57;2.50;;;6.90;99.90;;;;;;5056221;28;20216;-64
2022/11/21 07:49:45;;;;;;;5.20;1.85;;;6.90;99.90;;;;;;5060276;28;20211;-66
2022/11/21 07:52:13;;;;;;;4.53;2.47;;;7.00;99.90;;;;;;5055380;28;20213;-64
2022/11/21 07:54:41;;;;;;;3.83;2.25;;;6.90;99.90;;;;;;5060987;28;20199;-64
2022/11/21 07:57:09;;;;;;;5.13;2.30;;;6.90;99.90;;;;;;5053597;28;20598;-65
2022/11/21 07:59:37;;;;;;;2.45;1.95;;;6.90;99.90;;;;;;5052099;28;20213;-65
2022/11/21 08:02:05;;;;;;;3.92;1.40;;;6.90;99.90;;;;;;5059576;28;20602;-64
2022/11/21 08:04:32;;;;;;;3.92;1.83;;;6.90;99.90;;;;;;5069122;28;20600;-64
2022/11/21 08:07:02;;;;;;;4.80;1.45;;;7.00;99.90;;;;;;5054656;28;20563;-64
2022/11/21 08:09:30;;;;;;;4.75;2.08;;;7.00;99.90;;;;;;5064115;28;20200;-64
2022/11/21 08:11:58;;;;;;;3.90;2.30;;;7.00;99.90;;;;;;5056528;28;20224;-63
2022/11/21 08:14:26;;;;;;;6.53;2.15;;;7.00;99.90;;;;;;5051614;28;20213;-64
2022/11/21 08:16:54;;;;;;;7.68;3.42;;;7.10;99.90;;;;;;5060440;28;20203;-63
2022/11/21 08:19:21;;;;;;;5.78;1.95;;;7.10;99.90;;;;;;5071232;28;20188;-64
2022/11/21 08:21:49;;;;;;;9.65;3.28;;;7.10;99.90;;;;;;5060118;28;20197;-64
2022/11/21 08:24:19;;;;;;;3.20;1.80;;;7.20;99.90;;;;;;5057782;28;20618;-64
2022/11/21 08:26:47;;;;;;;6.03;2.50;;;7.30;99.90;;;;;;5060315;28;20208;-64
2022/11/21 08:29:15;;;;;;;3.88;2.58;;;7.40;99.90;;;;;;5051425;28;20702;-63
2022/11/21 08:31:44;;;;;;;2.88;1.85;;;7.50;99.90;;;;;;5063217;28;20580;-63
2022/11/21 08:34:12;;;;;;;10.85;2.25;;;7.50;99.90;;;;;;5051084;28;20222;-64
2022/11/21 08:36:40;;;;;;;3.30;2.70;;;7.50;99.90;;;;;;5051123;28;20200;-64
2022/11/21 08:39:08;;;;;;;3.40;2.20;;;7.50;99.90;;;;;;5067313;28;20617;-63
2022/11/21 08:44:23;;;;;;;9.05;3.40;;;7.60;99.90;;;;;;5057554;28;20208;-64
2022/11/21 08:46:51;;;;;;;5.35;1.92;;;7.60;99.90;;;;;;5056153;28;20265;-64
2022/11/21 08:49:19;;;;;;;7.43;1.73;;;7.70;99.90;;;;;;5055729;28;20226;-63
2022/11/21 08:51:48;;;;;;;16.58;2.35;;;7.70;99.90;;;;;;5052582;28;20205;-64
2022/11/21 08:54:16;;;;;;;4.30;1.60;;;7.70;99.90;;;;;;5070164;28;20195;-64
2022/11/21 08:56:45;;;;;;;6.85;1.98;;;7.70;99.90;;;;;;5059256;28;20229;-64
2022/11/21 08:59:13;;;;;;;5.32;2.17;;;7.80;99.90;;;;;;5056424;28;20675;-64
2022/11/21 09:01:41;;;;;;;4.07;2.28;;;7.80;99.90;;;;;;5054058;28;20548;-64
2022/11/21 09:04:10;;;;;;;7.95;2.10;;;7.90;99.90;;;;;;5058601;28;20216;-64
2022/11/21 09:06:38;;;;;;;7.55;2.45;;;7.90;99.90;;;;;;5063737;28;20200;-63
2022/11/21 09:09:07;;;;;;;4.53;2.10;;;7.80;99.90;;;;;;5069864;28;20226;-64
2022/11/21 09:11:36;;;;;;;6.30;1.83;;;7.70;99.90;;;;;;5070824;28;20288;-64
2022/11/21 09:19:47;;;;;;;6.95;2.10;;;7.80;99.90;;;;;;5057039;28;20607;-63
2022/11/21 09:22:15;;;;;;;4.18;1.95;;;7.90;99.90;;;;;;5053792;28;20258;-64
2022/11/21 09:24:43;;;;;;;3.25;2.00;;;7.90;99.90;;;;;;5061527;28;20254;-65
2022/11/21 09:27:11;;;;;;;3.08;1.52;;;8.10;99.90;;;;;;5057903;28;20558;-65
2022/11/21 09:29:40;;;;;;;5.72;1.73;;;8.10;99.90;;;;;;5057510;28;20642;-64
2022/11/21 09:32:08;;;;;;;5.57;2.00;;;8.20;99.90;;;;;;5061813;28;20207;-63
2022/11/21 09:34:36;;;;;;;2.95;2.50;;;8.30;99.90;;;;;;5069351;28;20246;-65
2022/11/21 09:37:04;;;;;;;3.88;1.63;;;8.40;99.90;;;;;;5060968;28;20212;-65
2022/11/21 09:39:33;;;;;;;3.17;1.60;;;8.30;99.90;;;;;;5050721;28;20209;-65
2022/11/21 09:42:19;;;;;;;6.50;2.40;;;8.20;99.90;;;;;;5051232;28;20254;-64
2022/11/21 09:45:09;;;;;;;11.15;5.50;;;8.20;99.90;;;;;;5051048;28;20208;-63
2022/11/21 09:47:42;;;;;;;9.90;3.08;;;8.10;99.90;;;;;;5070176;28;20534;-62
2022/11/21 09:50:25;;;;;;;6.15;2.83;;;8.10;99.90;;;;;;5059866;28;20679;-64
2022/11/21 09:53:00;;;;;;;6.15;2.45;;;8.20;99.90;;;;;;5053231;28;20200;-65
2022/11/21 09:55:32;;;;;;;8.75;2.38;;;8.30;99.90;;;;;;5071061;28;20187;-63
2022/11/21 09:58:04;;;;;;;6.05;2.33;;;8.20;99.90;;;;;;5070233;28;20188;-62
2022/11/21 10:00:34;;;;;;;11.10;2.47;;;8.30;99.90;;;;;;5062336;28;20194;-64
2022/11/21 10:03:02;;;;;;;8.30;2.90;;;8.40;99.90;;;;;;5055667;28;20204;-65
2022/11/21 10:05:36;;;;;;;7.43;2.42;;;8.60;99.90;;;;;;5050156;28;20562;-66
2022/11/21 10:08:15;;;;;;;12.60;3.17;;;8.50;99.90;;;;;;5052005;28;20261;-65
2022/11/21 10:10:54;;;;;;;10.57;3.03;;;8.70;99.90;;;;;;5055225;28;20204;-65
2022/11/21 10:13:36;;;;;;;6.20;3.00;;;8.60;99.90;;;;;;5071613;28;20192;-67
2022/11/21 10:16:12;;;;;;;4.38;2.92;;;8.70;99.90;;;;;;5065871;28;20211;-67
2022/11/21 10:19:15;;;;;;;6.15;2.15;;;8.80;99.90;;;;;;5074477;28;20183;-66
2022/11/21 10:21:59;;;;;;;7.72;2.78;;;9.10;99.90;;;;;;5060334;28;20196;-65
2022/11/21 10:24:40;;;;;;;9.38;2.92;;;9.10;99.90;;;;;;5054011;28;20193;-65
2022/11/21 10:27:14;;;;;;;7.75;2.70;;;8.80;99.90;;;;;;5053916;28;20185;-65
2022/11/21 10:29:47;;;;;;;14.73;2.88;;;8.90;99.90;;;;;;5057779;28;20224;-65
2022/11/21 10:32:23;;;;;;;18.58;2.80;;;9.10;99.90;;;;;;5055034;28;20701;-67
2022/11/21 10:34:53;;;;;;;4.22;2.40;;;9.30;99.90;;;;;;5053731;28;20695;-65
2022/11/21 10:37:30;;;;;;;10.80;2.40;;;9.30;99.90;;;;;;5063297;28;20204;-64
2022/11/21 10:40:10;;;;;;;4.53;2.10;;;9.30;99.90;;;;;;5074300;28;20245;-65
2022/11/21 10:42:49;;;;;;;3.15;1.95;;;9.10;99.90;;;;;;5055098;28;20189;-66
2022/11/21 10:45:17;;;;;;;7.82;2.47;;;9.40;99.90;;;;;;5053872;28;20204;-66
2022/11/21 10:47:48;;;;;;;5.47;2.30;;;9.80;99.90;;;;;;5067330;28;20196;-67
2022/11/21 10:50:28;;;;;;;5.82;2.13;;;9.90;99.90;;;;;;5072689;28;20204;-66
2022/11/21 10:54:31;;;;;;;11.57;2.42;;;10.20;99.90;;;;;;5054921;28;20532;-65
2022/11/21 10:56:02;;;;;;;7.75;2.15;;;10.50;99.90;;;;;;5073715;28;20196;-65
2022/11/21 10:58:42;;;;;;;9.13;1.92;;;9.80;99.90;;;;;;5069358;28;20202;-64
2022/11/21 11:01:25;;;;;;;11.07;2.95;;;9.50;99.90;;;;;;5069396;28;20654;-64
2022/11/21 11:04:15;;;;;;;10.60;2.53;;;9.50;99.90;;;;;;5052398;28;20184;-63
2022/11/21 11:06:46;;;;;;;13.50;5.30;;;9.50;99.90;;;;;;5053642;28;20197;-64
2022/11/21 11:09:27;;;;;;;18.95;7.68;;;9.80;99.90;;;;;;5062521;28;20701;-65
2022/11/21 11:12:22;;;;;;;10.75;2.40;;;10.40;99.90;;;;;;5064006;28;20224;-65
2022/11/21 11:14:52;;;;;;;9.85;3.45;;;10.40;99.90;;;;;;5063412;28;20203;-65
2022/11/21 11:17:28;;;;;;;17.10;8.73;;;10.50;99.90;;;;;;5073621;28;20204;-66
2022/11/21 11:20:26;;;;;;;3.30;2.28;;;10.60;99.90;;;;;;5059556;28;20375;-67
2022/11/21 11:22:55;;;;;;;3.33;2.25;;;10.40;99.90;;;;;;5057273;28;20207;-63
2022/11/21 11:25:23;;;;;;;5.30;2.67;;;10.30;99.90;;;;;;5054928;28;20216;-64
2022/11/21 11:27:51;;;;;;;13.00;3.40;;;10.20;99.90;;;;;;5062250;28;20675;-65
2022/11/21 11:30:20;;;;;;;6.65;2.95;;;10.60;99.90;;;;;;5062588;28;20200;-65
2022/11/21 11:32:47;;;;;;;9.10;3.50;;;11.00;99.90;;;;;;5058519;28;20631;-64
2022/11/21 11:35:33;;;;;;;24.00;10.68;;;11.30;99.90;;;;;;5058498;28;20647;-66
2022/11/21 11:38:02;;;;;;;13.90;3.20;;;11.00;99.90;;;;;;5065655;28;20556;-66
2022/11/21 11:40:34;;;;;;;4.23;1.90;;;11.00;99.90;;;;;;5053765;28;21497;-65
2022/11/21 11:49:03;;;;;;;5.93;3.00;;;11.00;99.90;;;;;;5013264;28;20619;-64
2022/11/21 11:51:40;;;;;;;7.30;3.33;;;11.00;99.90;;;;;;5059265;28;20630;-64
2022/11/21 11:54:13;;;;;;;5.47;2.70;;;10.90;99.90;;;;;;5062047;28;20633;-64
2022/11/21 11:56:43;;;;;;;8.77;2.70;;;10.60;99.90;;;;;;5054630;28;20610;-65
2022/11/21 11:59:17;;;;;;;5.45;2.65;;;10.30;99.90;;;;;;5059508;28;20204;-65
2022/11/21 12:01:51;;;;;;;8.25;3.40;;;10.40;99.90;;;;;;5061285;28;20210;-65
2022/11/21 12:04:21;;;;;;;11.93;6.63;;;10.10;99.90;;;;;;5072029;28;20211;-66
2022/11/21 12:06:55;;;;;;;8.68;2.80;;;10.20;99.90;;;;;;5054614;28;20686;-65
2022/11/21 12:09:30;;;;;;;4.93;2.33;;;10.10;99.90;;;;;;5052861;28;20196;-65
2022/11/21 12:12:10;;;;;;;8.50;3.25;;;10.90;99.90;;;;;;5051803;28;20220;-64
2022/11/21 12:17:39;;;;;;;10.47;3.83;;;12.40;99.90;;;;;;5070973;28;20603;-64
2022/11/21 12:20:15;;;;;;;8.23;3.70;;;12.70;99.90;;;;;;5057953;28;20975;-63
2022/11/21 12:22:46;;;;;;;5.00;2.97;;;12.50;99.90;;;;;;5064703;28;20614;-64
2022/11/21 12:25:15;;;;;;;9.60;4.40;;;12.20;99.90;;;;;;5050910;28;20614;-65
2022/11/21 12:27:44;;;;;;;7.70;4.20;;;11.80;99.90;;;;;;5049767;28;21215;-65
2022/11/21 12:30:33;;;;;;;5.00;2.67;;;12.00;99.90;;;;;;5051985;28;20619;-65
2022/11/21 12:33:05;;;;;;;5.87;3.47;;;11.70;99.90;;;;;;5067749;28;20618;-64
2022/11/21 12:35:48;;;;;;;12.20;5.63;;;11.00;99.90;;;;;;5057196;28;20627;-65
2022/11/21 12:38:35;;;;;;;15.50;4.77;;;11.00;99.90;;;;;;5052456;28;20912;-65
2022/11/21 12:44:07;;;;;;;6.20;2.80;;;10.60;99.90;;;;;;5051831;28;20204;-65
2022/11/21 12:46:46;;;;;;;12.75;3.63;;;10.30;99.90;;;;;;5051649;28;20209;-65
2022/11/21 12:55:14;;;;;;;5.05;2.38;;;10.30;99.90;;;;;;5050903;28;20675;-65
2022/11/21 12:58:00;;;;;;;10.82;2.80;;;10.60;99.90;;;;;;5052364;28;20558;-64
2022/11/21 13:00:35;;;;;;;7.85;4.45;;;11.10;99.90;;;;;;5062925;28;20184;-65
2022/11/21 13:03:39;;;;;;;8.93;3.83;;;11.70;99.90;;;;;;5070061;28;20184;-65
2022/11/21 13:06:14;;;;;;;14.30;3.13;;;11.20;99.90;;;;;;5066556;28;20642;-64
2022/11/21 13:08:44;;;;;;;5.20;2.88;;;11.10;99.90;;;;;;5058240;28;20723;-65
2022/11/21 13:14:18;;;;;;;7.75;3.30;;;10.80;99.90;;;;;;5070287;28;20203;-65
2022/11/21 13:16:54;;;;;;;6.45;3.17;;;10.40;99.90;;;;;;5066552;28;20249;-65
2022/11/21 13:19:30;;;;;;;3.85;2.60;;;10.40;99.90;;;;;;5070546;28;20270;-65
2022/11/21 13:21:58;;;;;;;6.45;3.78;;;10.50;99.90;;;;;;5054747;28;20199;-65
2022/11/21 13:24:58;;;;;;;11.40;5.95;;;10.40;99.90;;;;;;5051115;28;20201;-65
2022/11/21 13:27:35;;;;;;;11.90;3.25;;;10.40;99.90;;;;;;5070322;28;20243;-65
2022/11/21 13:30:22;;;;;;;7.40;2.58;;;10.30;99.90;;;;;;5070761;28;20223;-65
2022/11/21 13:32:51;;;;;;;8.70;3.20;;;10.20;99.90;;;;;;5051921;28;20631;-65
2022/11/21 13:36:05;;;;;;;10.52;3.00;;;10.10;99.90;;;;;;5051456;28;20201;-65
2022/11/21 13:39:24;;;;;;;11.77;3.13;;;10.20;99.90;;;;;;5051462;28;20205;-65
2022/11/21 13:44:47;;;;;;;6.68;3.10;;;10.10;99.90;;;;;;5055273;28;20211;-65
2022/11/21 13:47:57;;;;;;;7.82;2.15;;;10.00;99.90;;;;;;5063202;28;20215;-65
2022/11/21 13:50:51;;;;;;;15.63;6.20;;;10.00;99.90;;;;;;5054449;28;20261;-64
2022/11/21 13:53:41;;;;;;;7.45;2.95;;;10.00;99.90;;;;;;5054991;28;20193;-64
2022/11/21 13:56:18;;;;;;;16.83;5.10;;;10.10;99.90;;;;;;5053795;28;20181;-64